Petersville, Texas
Current Conditions -  °F | °C
As of 8:51 AM on Friday 24 Oct 2014 (Local Time) from KVCT Reporting Station
Clear Clear  
Wind Chill: 64°   Ceiling: Unl
Heat Index: 64°   Visibility: 10mi
Dew Point: 57°   Wind: 7mph
Humidity: 78%   Direction: 40°NE
Pressure: 30.16"   Gusts: NA
Location:  29.2421°N, 97.0692°W
Report Text: KVCT 241351Z 04006KT 10SM CLR 18/14 A3016 RMK AO2 SLP211 T01780139
Loading
Personal Weather Stations






























Interactive Weather Map
Tropical Storm Tracking
New forecast layout! Learn more

10-Day Weather Forecast

Advertisements
Track Severe Weather on mobile